createdAt,value
2018-12-25T00:43:09.847Z,73.60
2018-12-25T00:45:49.291Z,73.40
2018-12-25T00:48:29.499Z,73.50
2018-12-25T00:51:08.954Z,74.30
2018-12-25T00:53:36.790Z,73.40
2018-12-25T00:56:04.724Z,73.60
2018-12-25T00:58:32.557Z,73.60
2018-12-25T01:01:00.383Z,73.60
2018-12-25T01:03:28.221Z,73.60
2018-12-25T01:05:56.132Z,73.60
2018-12-25T01:08:23.972Z,73.60
2018-12-25T01:10:51.825Z,73.70
2018-12-25T01:13:19.864Z,73.80
2018-12-25T01:15:47.806Z,73.60
2018-12-25T01:18:17.423Z,73.60
2018-12-25T01:20:45.382Z,73.70
2018-12-25T01:23:13.254Z,73.70
2018-12-25T01:25:41.168Z,73.70
2018-12-25T01:28:09.097Z,73.70
2018-12-25T01:30:36.961Z,73.60
2018-12-25T01:33:04.811Z,73.70
2018-12-25T01:35:32.613Z,73.60
2018-12-25T01:38:00.476Z,73.80
2018-12-25T01:40:28.321Z,73.70
2018-12-25T01:42:56.183Z,73.70
2018-12-25T01:45:24.113Z,73.70
2018-12-25T01:47:52.119Z,73.70
2018-12-25T01:50:20.137Z,73.70
2018-12-25T01:52:47.992Z,73.70
2018-12-25T01:55:17.195Z,73.70
2018-12-25T01:57:45.035Z,73.70
2018-12-25T02:00:16.827Z,73.70
2018-12-25T02:02:44.715Z,73.70
2018-12-25T02:05:12.624Z,73.70
2018-12-25T02:07:40.474Z,73.90
2018-12-25T02:10:08.387Z,73.70
2018-12-25T02:12:36.296Z,73.70
2018-12-25T02:15:04.526Z,73.70
2018-12-25T02:17:32.455Z,73.80
2018-12-25T02:20:00.380Z,73.70
2018-12-25T02:22:30.150Z,73.70
2018-12-25T02:24:58.044Z,73.80
2018-12-25T02:27:27.118Z,73.80
2018-12-25T02:29:55.007Z,73.90
2018-12-25T02:32:25.772Z,73.80
2018-12-25T02:34:53.688Z,73.80
2018-12-25T02:37:21.605Z,73.90
2018-12-25T02:39:49.423Z,73.80
2018-12-25T02:42:17.341Z,73.80
2018-12-25T02:44:45.173Z,73.90
2018-12-25T02:47:13.042Z,74.00
2018-12-25T02:49:50.053Z,74.00
2018-12-25T02:52:12.878Z,73.80
2018-12-25T02:54:40.675Z,74.00
2018-12-25T02:57:08.475Z,74.00
2018-12-25T02:59:36.279Z,74.00
2018-12-25T03:02:04.113Z,74.00
2018-12-25T03:04:32.283Z,73.90
2018-12-25T03:07:00.099Z,74.70
2018-12-25T03:09:27.967Z,73.90
2018-12-25T03:11:55.787Z,74.00
2018-12-25T03:14:23.600Z,74.00
2018-12-25T03:16:51.404Z,73.90
2018-12-25T03:19:19.204Z,74.00
2018-12-25T03:21:47.060Z,73.90
2018-12-25T03:24:15.410Z,73.90
2018-12-25T03:26:43.230Z,73.90
2018-12-25T03:29:11.071Z,73.90
2018-12-25T03:31:38.892Z,74.10
2018-12-25T03:34:06.805Z,73.90
2018-12-25T03:36:34.668Z,74.00
2018-12-25T03:39:02.511Z,74.00
2018-12-25T03:41:30.403Z,74.00
2018-12-25T03:43:58.262Z,74.00
2018-12-25T03:46:26.079Z,74.00
2018-12-25T03:48:53.891Z,74.00
2018-12-25T03:51:21.734Z,74.10
2018-12-25T03:53:49.539Z,74.00
2018-12-25T03:56:17.483Z,74.00
2018-12-25T03:58:45.315Z,74.00
2018-12-25T04:01:13.170Z,74.00
2018-12-25T04:03:41.072Z,74.00
2018-12-25T04:06:08.877Z,73.90
2018-12-25T04:08:36.685Z,74.10
2018-12-25T04:11:04.542Z,74.10
2018-12-25T04:13:32.374Z,74.10
2018-12-25T04:16:00.179Z,74.20
2018-12-25T04:18:28.026Z,74.10
2018-12-25T04:20:55.940Z,74.10
2018-12-25T04:23:23.780Z,74.20
2018-12-25T04:25:51.575Z,74.10
2018-12-25T04:28:19.457Z,74.10
2018-12-25T04:30:47.466Z,74.20
2018-12-25T04:33:15.321Z,74.10
2018-12-25T04:35:43.175Z,74.20
2018-12-25T04:38:11.028Z,74.10
2018-12-25T04:40:39.093Z,74.20
2018-12-25T04:43:06.949Z,74.00
2018-12-25T04:45:35.020Z,74.10
2018-12-25T04:48:03.144Z,74.10
2018-12-25T04:50:31.185Z,74.10
2018-12-25T04:52:59.101Z,74.20
2018-12-25T04:55:27.156Z,74.10
2018-12-25T04:57:55.010Z,74.10
2018-12-25T05:00:22.848Z,74.20
2018-12-25T05:02:50.748Z,74.30
2018-12-25T05:05:18.564Z,74.20
2018-12-25T05:07:46.480Z,74.20
2018-12-25T05:10:14.313Z,74.00
2018-12-25T05:12:42.106Z,74.10
2018-12-25T05:15:10.048Z,74.10
2018-12-25T05:17:37.910Z,74.10
2018-12-25T05:20:05.758Z,74.10
2018-12-25T05:22:33.614Z,74.10
2018-12-25T05:25:02.748Z,74.00
2018-12-25T05:27:30.696Z,74.00
2018-12-25T05:29:58.548Z,74.00
2018-12-25T05:32:26.364Z,74.00
2018-12-25T05:34:54.222Z,74.00
2018-12-25T05:37:22.060Z,73.90
2018-12-25T05:39:49.871Z,74.70
2018-12-25T05:42:17.697Z,74.00
2018-12-25T05:44:45.782Z,73.90
2018-12-25T05:47:13.587Z,73.90
2018-12-25T05:49:41.394Z,73.90
2018-12-25T05:52:10.435Z,73.90
2018-12-25T05:54:38.277Z,73.90
2018-12-25T05:57:06.088Z,74.00
2018-12-25T05:59:33.897Z,74.00
2018-12-25T06:02:01.682Z,74.00
2018-12-25T06:04:29.517Z,74.00
2018-12-25T06:06:57.442Z,74.00
2018-12-25T06:09:26.919Z,74.00
2018-12-25T06:11:54.725Z,74.00
2018-12-25T06:14:22.574Z,74.00
2018-12-25T06:16:50.454Z,74.00
2018-12-25T06:19:18.363Z,74.00
2018-12-25T06:21:46.263Z,73.90
2018-12-25T06:24:14.139Z,74.00
2018-12-25T06:26:42.098Z,74.00
2018-12-25T06:29:10.055Z,73.80
2018-12-25T06:31:37.896Z,73.80
2018-12-25T06:34:05.802Z,73.80
2018-12-25T06:36:33.669Z,73.90
2018-12-25T06:39:02.932Z,73.80
2018-12-25T06:41:30.815Z,73.70
2018-12-25T06:43:58.726Z,73.80
2018-12-25T06:46:26.694Z,73.90
2018-12-25T06:48:54.556Z,74.00
2018-12-25T06:51:22.376Z,73.90
2018-12-25T06:53:50.320Z,74.00
2018-12-25T06:56:18.286Z,74.00
2018-12-25T06:58:46.201Z,74.00
2018-12-25T07:01:14.119Z,74.00
2018-12-25T07:03:42.539Z,74.00
2018-12-25T07:06:11.123Z,74.10
2018-12-25T07:08:39.011Z,74.10
2018-12-25T07:11:07.002Z,74.10
2018-12-25T07:13:34.952Z,74.10
2018-12-25T07:16:03.538Z,74.00
2018-12-25T07:18:31.509Z,73.90
2018-12-25T07:20:59.623Z,73.80
2018-12-25T07:23:27.485Z,74.10
2018-12-25T07:25:55.489Z,73.80
2018-12-25T07:28:23.350Z,73.80
2018-12-25T07:30:51.326Z,73.80
2018-12-25T07:33:19.183Z,73.80
2018-12-25T07:35:47.432Z,73.90
2018-12-25T07:38:15.968Z,73.90
2018-12-25T07:40:44.444Z,73.80
2018-12-25T07:43:12.377Z,73.80
2018-12-25T07:45:40.450Z,73.80
2018-12-25T07:48:08.391Z,73.80
2018-12-25T07:50:36.456Z,73.90
2018-12-25T07:53:04.630Z,73.80
2018-12-25T07:55:32.695Z,73.80
2018-12-25T07:58:00.610Z,73.80
2018-12-25T08:00:28.681Z,73.90
2018-12-25T08:02:56.654Z,73.90
2018-12-25T08:05:24.580Z,73.90
2018-12-25T08:07:52.551Z,73.90
2018-12-25T08:10:20.910Z,73.90
2018-12-25T08:12:48.973Z,73.90
2018-12-25T08:15:17.665Z,73.90
2018-12-25T08:17:45.883Z,74.00
2018-12-25T08:20:14.173Z,74.00
2018-12-25T08:22:42.283Z,73.80
2018-12-25T08:25:11.357Z,73.90
2018-12-25T08:27:39.375Z,73.90
2018-12-25T08:30:07.430Z,74.00
2018-12-25T08:32:37.103Z,74.00
2018-12-25T08:35:05.578Z,74.00
2018-12-25T08:37:33.492Z,74.00
2018-12-25T08:40:01.435Z,74.10
2018-12-25T08:42:33.130Z,74.10
2018-12-25T08:45:01.298Z,74.10
2018-12-25T08:47:29.869Z,73.80
2018-12-25T08:49:58.167Z,74.00
2018-12-25T08:52:27.411Z,74.10
2018-12-25T08:54:55.296Z,74.10
2018-12-25T08:57:23.311Z,74.10
2018-12-25T08:59:51.304Z,74.10
2018-12-25T09:02:19.408Z,74.10
2018-12-25T09:04:47.817Z,74.10
2018-12-25T09:07:15.849Z,74.10
2018-12-25T09:09:43.791Z,74.10
2018-12-25T09:12:11.953Z,74.10
2018-12-25T09:14:39.872Z,74.10
2018-12-25T09:17:09.697Z,74.20
2018-12-25T09:19:38.693Z,74.80
2018-12-25T09:22:07.072Z,74.20
2018-12-25T09:24:35.023Z,74.10
2018-12-25T09:27:06.215Z,74.20
2018-12-25T09:29:34.238Z,74.10
2018-12-25T09:32:11.457Z,74.20
2018-12-25T09:34:39.442Z,74.20
2018-12-25T09:37:07.459Z,74.10
2018-12-25T09:39:36.081Z,74.30
2018-12-25T09:42:06.001Z,74.30
2018-12-25T09:44:35.239Z,74.30
2018-12-25T09:47:03.379Z,74.20
2018-12-25T09:49:31.254Z,74.30
2018-12-25T09:51:59.107Z,74.30
2018-12-25T09:54:28.089Z,74.30
2018-12-25T09:56:56.983Z,74.40
2018-12-25T09:59:26.980Z,74.30
2018-12-25T10:01:54.478Z,74.30
2018-12-25T10:04:22.459Z,74.20
2018-12-25T10:06:50.370Z,74.30
2018-12-25T10:09:19.328Z,74.30
2018-12-25T10:11:47.203Z,74.30
2018-12-25T10:14:15.171Z,74.30
2018-12-25T10:16:43.055Z,74.20
2018-12-25T10:19:10.956Z,74.30
2018-12-25T10:21:39.244Z,74.30
2018-12-25T10:24:07.409Z,74.40
2018-12-25T10:26:35.322Z,74.20
2018-12-25T10:29:05.912Z,74.20
2018-12-25T10:31:33.901Z,74.30
2018-12-25T10:34:04.459Z,74.40
2018-12-25T10:36:51.619Z,74.40
2018-12-25T10:39:38.698Z,75.10
2018-12-25T10:42:25.970Z,74.40
2018-12-25T10:45:13.065Z,74.40
2018-12-25T11:17:34.570Z,74.50
2018-12-25T11:20:14.691Z,74.30
2018-12-25T11:22:54.114Z,74.40
2018-12-25T11:25:33.467Z,74.40
2018-12-25T11:28:13.677Z,74.40
2018-12-25T11:30:53.548Z,74.30
2018-12-25T11:33:33.665Z,74.20
2018-12-25T11:36:13.878Z,74.30
2018-12-25T11:38:54.008Z,74.40
2018-12-25T11:41:34.265Z,74.40
2018-12-25T11:44:14.504Z,74.20
2018-12-25T11:46:53.839Z,74.20
2018-12-25T11:49:33.174Z,74.30
2018-12-25T11:52:12.665Z,74.20
2018-12-25T11:54:52.072Z,74.30
2018-12-25T11:57:31.731Z,74.10
2018-12-25T12:00:11.727Z,73.80
2018-12-25T12:02:52.111Z,74.10
2018-12-25T12:05:32.504Z,74.10
2018-12-25T12:08:12.546Z,74.00
2018-12-25T12:10:52.502Z,74.00
2018-12-25T12:13:31.897Z,74.20
2018-12-25T12:16:11.371Z,74.00
2018-12-25T12:18:39.174Z,75.00
2018-12-25T12:21:26.264Z,74.20
2018-12-25T12:24:13.348Z,74.20
2018-12-25T12:27:00.526Z,74.20
2018-12-25T12:29:47.604Z,75.30
2018-12-25T12:32:34.731Z,74.50
2018-12-25T12:35:21.831Z,74.30
2018-12-25T12:38:08.970Z,74.40
2018-12-25T12:40:56.051Z,74.40
2018-12-25T12:43:43.151Z,74.50
2018-12-25T12:46:30.229Z,74.50
2018-12-25T12:49:17.322Z,74.50
2018-12-25T12:52:04.463Z,74.30
2018-12-25T12:54:32.404Z,74.50
2018-12-25T12:57:00.338Z,74.50
2018-12-25T12:59:28.331Z,74.60
2018-12-25T13:02:15.708Z,74.60
2018-12-25T13:05:02.836Z,74.50
2018-12-25T13:07:30.740Z,75.50
2018-12-25T13:10:00.640Z,74.70
2018-12-25T13:12:31.206Z,74.70
2018-12-25T13:15:01.869Z,74.70
2018-12-25T13:17:29.853Z,74.70
2018-12-25T13:19:57.731Z,74.70
2018-12-25T13:22:25.570Z,74.90
2018-12-25T13:24:53.427Z,74.80
2018-12-25T13:27:24.686Z,74.80
2018-12-25T13:29:52.664Z,74.90
2018-12-25T13:32:20.905Z,74.80
2018-12-25T13:34:48.988Z,74.90
2018-12-25T13:37:16.885Z,74.80
2018-12-25T13:39:44.689Z,74.80
2018-12-25T13:42:12.683Z,74.80
2018-12-25T13:44:40.537Z,74.80
2018-12-25T13:47:08.358Z,74.80
2018-12-25T13:49:36.266Z,74.80
2018-12-25T13:52:04.268Z,74.80
2018-12-25T13:54:32.204Z,74.80
2018-12-25T13:57:00.152Z,74.90
2018-12-25T13:59:28.026Z,74.90
2018-12-25T14:01:55.850Z,74.80
2018-12-25T14:04:23.764Z,75.00
2018-12-25T14:06:51.701Z,75.00
2018-12-25T14:09:19.560Z,74.80
2018-12-25T14:11:55.645Z,74.90
2018-12-25T14:14:23.625Z,74.80
2018-12-25T14:16:51.610Z,75.00
2018-12-25T14:19:19.622Z,74.90
2018-12-25T14:21:47.684Z,74.80
2018-12-25T14:24:17.797Z,75.00
2018-12-25T14:26:45.676Z,75.10
2018-12-25T14:29:13.610Z,75.60
2018-12-25T14:31:41.476Z,75.10
2018-12-25T14:34:09.431Z,75.00
2018-12-25T14:36:37.261Z,75.00
2018-12-25T14:39:06.537Z,75.10
2018-12-25T14:41:42.092Z,75.10
2018-12-25T14:44:10.261Z,75.10
2018-12-25T14:46:39.828Z,75.40
2018-12-25T14:49:12.008Z,75.00
2018-12-25T14:51:43.341Z,75.10
2018-12-25T14:54:12.824Z,75.00
2018-12-25T14:56:41.219Z,75.10
2018-12-25T14:59:09.290Z,75.00
2018-12-25T15:01:37.299Z,75.00
2018-12-25T15:04:05.267Z,75.00
2018-12-25T15:06:33.259Z,75.00
2018-12-25T15:09:01.247Z,75.10
2018-12-25T15:11:29.329Z,75.10
2018-12-25T15:14:00.439Z,75.00
2018-12-25T15:16:30.340Z,75.20
2018-12-25T15:19:05.539Z,75.20
2018-12-25T15:21:33.775Z,75.10
2018-12-25T15:24:05.705Z,75.00
2018-12-25T15:26:33.963Z,75.00
2018-12-25T15:29:09.604Z,75.10
2018-12-25T15:31:37.594Z,75.10
2018-12-25T15:34:05.583Z,75.10
2018-12-25T15:36:33.846Z,75.20
2018-12-25T15:39:13.895Z,75.20
2018-12-25T15:41:44.206Z,75.10
2018-12-25T15:44:18.656Z,75.20
2018-12-25T15:46:54.030Z,75.20
2018-12-25T15:49:26.854Z,75.20
2018-12-25T15:52:02.780Z,75.10
2018-12-25T15:54:43.830Z,75.30
2018-12-25T15:57:15.703Z,75.20
2018-12-25T15:59:46.375Z,75.30
2018-12-25T16:02:15.656Z,75.20
2018-12-25T16:04:43.844Z,75.20
2018-12-25T16:07:11.944Z,75.20
2018-12-25T16:09:42.005Z,75.30
2018-12-25T16:12:11.472Z,75.30
2018-12-25T16:14:43.194Z,75.20
2018-12-25T16:17:11.271Z,75.20
2018-12-25T16:19:39.164Z,75.30
2018-12-25T16:22:07.428Z,75.30
2018-12-25T16:24:38.693Z,75.30
2018-12-25T16:27:07.917Z,75.20
2018-12-25T16:29:39.483Z,76.00
2018-12-25T16:32:12.795Z,75.30
2018-12-25T16:34:40.238Z,75.40
2018-12-25T16:37:09.814Z,75.30
2018-12-25T16:39:40.119Z,75.30
2018-12-25T16:42:16.632Z,75.30
2018-12-25T16:44:55.564Z,75.30
2018-12-25T16:47:25.727Z,75.20
2018-12-25T16:49:56.556Z,75.20
2018-12-25T16:52:26.898Z,75.20
2018-12-25T16:54:55.966Z,75.20
2018-12-25T16:57:24.141Z,75.10
2018-12-25T16:59:53.468Z,75.20
2018-12-25T17:02:21.413Z,75.20
2018-12-25T17:04:49.377Z,75.20
2018-12-25T17:07:17.315Z,75.20
2018-12-25T17:09:45.479Z,75.10
2018-12-25T17:12:13.394Z,75.10
2018-12-25T17:14:41.268Z,75.00
2018-12-25T17:17:09.405Z,75.00
2018-12-25T17:19:37.306Z,75.10
2018-12-25T17:22:05.381Z,75.10
2018-12-25T17:24:33.335Z,75.10
2018-12-25T17:27:01.196Z,75.10
2018-12-25T17:29:29.231Z,75.10
2018-12-25T17:31:57.196Z,75.20
2018-12-25T17:34:25.056Z,75.10
2018-12-25T17:36:55.710Z,75.10
2018-12-25T17:39:26.683Z,75.10
2018-12-25T17:41:54.694Z,75.10
2018-12-25T17:44:22.619Z,75.10
2018-12-25T17:46:50.526Z,75.20
2018-12-25T17:49:20.217Z,75.10
2018-12-25T17:51:49.487Z,75.10
2018-12-25T17:54:17.399Z,75.10
2018-12-25T17:56:45.446Z,75.10
2018-12-25T17:59:13.312Z,75.10
2018-12-25T18:01:41.257Z,75.10
2018-12-25T18:04:09.121Z,75.10
2018-12-25T18:06:37.090Z,75.00
2018-12-25T18:09:05.811Z,75.10
2018-12-25T18:11:33.709Z,75.20
2018-12-25T18:14:01.601Z,75.10
2018-12-25T18:16:32.716Z,75.20
2018-12-25T18:19:00.683Z,75.10
2018-12-25T18:21:28.681Z,75.10
2018-12-25T18:23:56.659Z,75.00
2018-12-25T18:26:26.909Z,75.10
2018-12-25T18:28:55.020Z,75.20
2018-12-25T18:31:23.098Z,75.10
2018-12-25T18:33:54.973Z,75.20
2018-12-25T18:36:26.948Z,75.00
2018-12-25T18:38:54.911Z,75.10
2018-12-25T18:41:32.951Z,75.00
2018-12-25T18:44:00.773Z,75.10
2018-12-25T18:46:28.793Z,75.10
2018-12-25T18:48:56.718Z,75.10
2018-12-25T18:51:24.611Z,75.20
2018-12-25T19:31:36.869Z,74.70
2018-12-25T19:34:04.911Z,74.40
2018-12-25T19:36:52.071Z,74.50
2018-12-25T19:59:46.950Z,75.00
2018-12-25T22:23:30.048Z,75.50
2018-12-25T22:26:10.251Z,75.40
2018-12-25T22:28:50.767Z,75.40
2018-12-25T22:31:30.981Z,75.30
2018-12-25T22:37:09.735Z,75.30
2018-12-25T22:39:37.785Z,75.50
2018-12-25T22:42:05.793Z,75.50
2018-12-25T22:44:33.665Z,75.50
2018-12-25T22:47:01.577Z,75.60
2018-12-25T22:49:29.504Z,75.60
2018-12-25T22:51:57.418Z,75.60
2018-12-25T22:54:25.429Z,75.60
2018-12-25T22:56:53.433Z,75.60
2018-12-25T22:59:21.413Z,76.50
2018-12-25T23:01:50.080Z,75.70
2018-12-25T23:04:18.057Z,75.70
2018-12-25T23:06:46.435Z,75.70
2018-12-25T23:09:14.415Z,75.60
2018-12-25T23:11:43.278Z,75.70
2018-12-25T23:14:11.151Z,75.60
2018-12-25T23:16:39.355Z,75.70
2018-12-25T23:19:07.321Z,75.70
2018-12-25T23:21:35.714Z,75.70
2018-12-25T23:24:03.582Z,75.70
2018-12-25T23:26:32.765Z,75.80
2018-12-25T23:29:00.805Z,75.70
2018-12-25T23:31:30.149Z,75.70
2018-12-25T23:33:59.455Z,75.80
2018-12-25T23:36:27.618Z,75.70
2018-12-25T23:38:55.547Z,75.70
2018-12-25T23:41:23.423Z,75.80
2018-12-25T23:43:51.345Z,75.80
2018-12-25T23:46:19.500Z,75.70
2018-12-25T23:48:47.561Z,75.70
2018-12-25T23:51:15.711Z,75.80
2018-12-25T23:53:43.682Z,75.80
2018-12-25T23:56:11.563Z,75.80
2018-12-25T23:58:39.543Z,75.80
